createdAt,value
2019-05-21T00:00:41.004Z,9.93
2019-05-21T00:03:10.846Z,9.50
2019-05-21T00:05:40.780Z,9.10
2019-05-21T00:08:10.629Z,10.07
2019-05-21T00:10:40.568Z,11.30
2019-05-21T00:13:10.585Z,9.87
2019-05-21T00:15:40.436Z,9.37
2019-05-21T00:18:10.315Z,10.37
2019-05-21T00:20:40.336Z,9.97
2019-05-21T00:23:10.244Z,10.17
2019-05-21T00:25:40.112Z,11.97
2019-05-21T00:28:33.802Z,11.17
2019-05-21T00:31:40.564Z,10.93
2019-05-21T00:34:47.618Z,11.20
2019-05-21T00:37:54.051Z,13.33
2019-05-21T00:41:00.763Z,14.43
2019-05-21T00:43:43.881Z,14.83
2019-05-21T00:46:13.988Z,13.27
2019-05-21T00:48:44.001Z,13.37
2019-05-21T00:51:13.929Z,12.70
2019-05-21T00:53:43.867Z,11.10
2019-05-21T00:56:14.867Z,14.07
2019-05-21T00:58:44.807Z,11.67
2019-05-21T01:01:14.748Z,11.77
2019-05-21T01:03:44.681Z,10.57
2019-05-21T01:06:14.627Z,11.53
2019-05-21T01:08:45.584Z,12.90
2019-05-21T01:11:15.528Z,13.47
2019-05-21T01:13:45.457Z,12.53
2019-05-21T01:16:15.340Z,12.13
2019-05-21T01:18:45.179Z,11.83
2019-05-21T01:21:15.121Z,15.23
2019-05-21T01:23:44.991Z,13.63
2019-05-21T01:26:14.953Z,11.90
2019-05-21T01:28:44.815Z,14.90
2019-05-21T01:31:14.766Z,12.90
2019-05-21T01:33:44.698Z,11.50
2019-05-21T01:36:14.658Z,11.93
2019-05-21T01:38:44.574Z,13.10
2019-05-21T01:41:14.441Z,11.93
2019-05-21T01:43:44.318Z,12.47
2019-05-21T01:46:14.296Z,13.93
2019-05-21T01:48:44.237Z,11.63
2019-05-21T01:51:14.145Z,11.20
2019-05-21T01:53:44.081Z,9.93
2019-05-21T01:56:14.206Z,10.00
2019-05-21T01:58:44.160Z,10.57
2019-05-21T02:01:14.104Z,10.67
2019-05-21T02:03:44.060Z,10.10
2019-05-21T02:06:14.046Z,11.07
2019-05-21T02:08:43.995Z,10.13
2019-05-21T02:11:14.114Z,10.17
2019-05-21T02:13:44.135Z,9.50
2019-05-21T02:16:14.042Z,8.53
2019-05-21T02:29:57.161Z,10.67
2019-05-21T02:32:27.081Z,10.60
2019-05-21T02:34:57.050Z,10.20
2019-05-21T02:37:26.972Z,11.03
2019-05-21T02:39:56.884Z,10.63
2019-05-21T02:42:27.876Z,10.83
2019-05-21T02:44:58.036Z,10.33
2019-05-21T02:47:27.951Z,11.47
2019-05-21T02:49:57.887Z,11.10
2019-05-21T02:52:27.746Z,8.93
2019-05-21T02:54:57.796Z,11.60
2019-05-21T02:57:29.349Z,10.30
2019-05-21T03:00:00.856Z,10.83
2019-05-21T03:02:32.350Z,11.50
2019-05-21T03:05:02.244Z,11.50
2019-05-21T03:07:32.166Z,10.43
2019-05-21T03:10:02.186Z,11.17
2019-05-21T03:12:32.105Z,10.07
2019-05-21T03:15:02.050Z,10.90
2019-05-21T03:17:33.122Z,10.37
2019-05-21T03:20:05.504Z,9.30
2019-05-21T03:22:35.350Z,12.87
2019-05-21T03:25:06.280Z,10.07
2019-05-21T03:27:36.139Z,9.13
2019-05-21T03:30:07.704Z,8.87
2019-05-21T03:32:37.624Z,9.10
2019-05-21T03:35:08.038Z,10.70
2019-05-21T03:37:37.961Z,8.03
2019-05-21T03:40:08.939Z,10.07
2019-05-21T03:42:38.789Z,11.67
2019-05-21T03:45:09.503Z,9.47
2019-05-21T03:47:39.492Z,11.63
2019-05-21T03:50:09.543Z,10.47
2019-05-21T03:52:39.473Z,12.33
2019-05-21T03:55:09.750Z,12.67
2019-05-21T03:57:39.783Z,10.17
2019-05-21T04:00:10.762Z,10.37
2019-05-21T04:02:40.838Z,12.70
2019-05-21T04:05:10.834Z,14.80
2019-05-21T04:07:40.772Z,12.43
2019-05-21T04:10:15.318Z,11.13
2019-05-21T04:12:46.883Z,11.87
2019-05-21T04:15:21.189Z,10.33
2019-05-21T04:17:58.576Z,9.47
2019-05-21T04:20:28.513Z,11.33
2019-05-21T04:22:58.458Z,9.40
2019-05-21T04:25:28.375Z,9.60
2019-05-21T04:27:58.241Z,9.20
2019-05-21T04:30:29.897Z,10.97
2019-05-21T04:32:59.818Z,9.53
2019-05-21T04:35:29.738Z,8.47
2019-05-21T04:37:59.604Z,8.00
2019-05-21T04:40:29.550Z,8.80
2019-05-21T04:43:02.134Z,8.93
2019-05-21T04:45:31.082Z,8.47
2019-05-21T04:48:01.467Z,8.23
2019-05-21T04:50:31.405Z,7.67
2019-05-21T04:53:02.331Z,7.70
2019-05-21T04:55:32.193Z,7.87
2019-05-21T04:58:02.118Z,6.80
2019-05-21T05:00:32.225Z,7.87
2019-05-21T05:03:02.064Z,5.90
2019-05-21T05:05:31.944Z,7.23
2019-05-21T05:08:01.839Z,6.60
2019-05-21T05:10:31.767Z,6.10
2019-05-21T05:13:01.707Z,5.90
2019-05-21T05:15:31.843Z,8.63
2019-05-21T05:18:01.707Z,6.10
2019-05-21T05:20:31.557Z,5.97
2019-05-21T05:23:01.520Z,5.83
2019-05-21T05:25:32.501Z,6.07
2019-05-21T05:28:02.423Z,6.23
2019-05-21T05:30:32.648Z,7.33
2019-05-21T05:33:02.772Z,5.47
2019-05-21T05:35:32.730Z,5.40
2019-05-21T05:38:02.658Z,5.10
2019-05-21T05:40:32.604Z,5.07
2019-05-21T05:43:02.460Z,5.73
2019-05-21T05:45:32.385Z,5.63
2019-05-21T05:48:02.249Z,4.40
2019-05-21T05:50:33.746Z,4.03
2019-05-21T05:53:03.707Z,3.87
2019-05-21T05:55:33.642Z,3.27
2019-05-21T05:58:03.582Z,2.90
2019-05-21T06:00:33.419Z,3.07
2019-05-21T06:03:03.455Z,3.97
2019-05-21T06:05:33.457Z,2.67
2019-05-21T06:08:03.592Z,2.80
2019-05-21T06:10:33.539Z,2.73
2019-05-21T06:13:03.477Z,2.40
2019-05-21T06:15:33.487Z,2.20
2019-05-21T06:18:03.494Z,2.30
2019-05-21T06:20:33.487Z,1.80
2019-05-21T06:23:03.447Z,2.77
2019-05-21T06:25:33.434Z,1.93
2019-05-21T06:28:03.428Z,2.20
2019-05-21T06:30:33.474Z,1.77
2019-05-21T06:33:03.410Z,1.97
2019-05-21T06:35:33.337Z,2.20
2019-05-21T06:38:16.478Z,1.90
2019-05-21T06:40:38.243Z,1.60
2019-05-21T06:43:06.400Z,1.83
2019-05-21T06:45:36.358Z,1.83
2019-05-21T06:48:06.365Z,1.57
2019-05-21T06:50:37.517Z,2.00
2019-05-21T06:53:07.845Z,1.90
2019-05-21T06:55:37.791Z,2.93
2019-05-21T06:58:07.744Z,2.87
2019-05-21T07:00:37.706Z,1.53
2019-05-21T07:03:07.771Z,1.90
2019-05-21T07:05:37.718Z,1.60
2019-05-21T07:08:07.733Z,2.33
2019-05-21T07:10:38.255Z,1.73
2019-05-21T07:13:08.330Z,3.10
2019-05-21T07:15:38.434Z,2.00
2019-05-21T07:18:08.383Z,2.37
2019-05-21T07:20:38.384Z,1.40
2019-05-21T07:23:08.407Z,1.47
2019-05-21T07:25:38.338Z,1.60
2019-05-21T07:28:08.368Z,2.10
2019-05-21T07:30:38.316Z,1.13
2019-05-21T07:33:08.345Z,1.07
2019-05-21T07:35:38.339Z,1.33
2019-05-21T07:38:08.235Z,2.67
2019-05-21T07:40:38.212Z,1.30
2019-05-21T07:43:08.199Z,1.57
2019-05-21T07:45:38.096Z,1.20
2019-05-21T07:48:08.134Z,1.20
2019-05-21T07:50:38.147Z,0.93
2019-05-21T07:53:08.151Z,1.70
2019-05-21T07:55:38.230Z,0.97
2019-05-21T07:58:08.104Z,0.87
2019-05-21T08:00:38.188Z,4.47
2019-05-21T08:03:08.110Z,2.73
2019-05-21T08:05:38.172Z,0.80
2019-05-21T08:08:08.294Z,0.83
2019-05-21T08:10:38.437Z,0.77
2019-05-21T08:13:08.606Z,1.00
2019-05-21T08:15:38.701Z,1.53
2019-05-21T08:18:09.077Z,1.27
2019-05-21T08:20:39.376Z,1.37
2019-05-21T08:23:09.767Z,1.57
2019-05-21T08:25:40.826Z,0.93
2019-05-21T08:28:10.811Z,0.90
2019-05-21T08:30:40.660Z,1.40
2019-05-21T08:33:10.642Z,1.00
2019-05-21T08:35:40.680Z,1.23
2019-05-21T08:38:11.572Z,0.97
2019-05-21T08:40:41.546Z,0.70
2019-05-21T08:43:11.406Z,1.73
2019-05-21T08:45:41.413Z,3.80
2019-05-21T08:48:11.347Z,1.53
2019-05-21T08:50:41.645Z,1.20
2019-05-21T08:53:12.479Z,1.10
2019-05-21T08:55:42.480Z,1.30
2019-05-21T08:58:14.183Z,3.27
2019-05-21T09:00:44.116Z,1.60
2019-05-21T09:03:15.210Z,1.40
2019-05-21T09:05:45.109Z,3.07
2019-05-21T09:08:15.049Z,2.67
2019-05-21T09:10:45.314Z,1.73
2019-05-21T09:13:17.863Z,1.93
2019-05-21T09:15:48.810Z,1.97
2019-05-21T09:18:20.162Z,1.30
2019-05-21T09:20:50.188Z,1.50
2019-05-21T09:23:20.183Z,3.13
2019-05-21T09:25:50.072Z,2.90
2019-05-21T09:28:20.051Z,2.10
2019-05-21T09:30:51.169Z,1.90
2019-05-21T09:33:21.311Z,1.40
2019-05-21T09:35:52.313Z,2.30
2019-05-21T09:38:22.404Z,1.40
2019-05-21T09:40:52.550Z,1.50
2019-05-21T09:43:22.665Z,3.20
2019-05-21T09:45:52.641Z,1.43
2019-05-21T09:48:22.553Z,2.40
2019-05-21T09:50:52.503Z,2.50
2019-05-21T09:53:22.442Z,2.07
2019-05-21T09:55:52.406Z,1.70
2019-05-21T09:58:23.968Z,2.00
2019-05-21T10:01:11.922Z,1.73
2019-05-21T10:03:46.298Z,1.70
2019-05-21T10:06:16.442Z,1.50
2019-05-21T10:08:46.458Z,2.20
2019-05-21T10:11:16.322Z,1.87
2019-05-21T10:13:46.399Z,1.73
2019-05-21T10:16:18.933Z,2.17
2019-05-21T10:18:49.066Z,1.90
2019-05-21T10:21:18.933Z,1.57
2019-05-21T10:23:48.952Z,1.83
2019-05-21T10:26:18.991Z,1.53
2019-05-21T10:28:49.039Z,1.10
2019-05-21T10:31:18.963Z,2.60
2019-05-21T10:33:49.077Z,0.80
2019-05-21T10:36:19.174Z,2.17
2019-05-21T10:38:49.294Z,1.77
2019-05-21T10:41:19.203Z,2.60
2019-05-21T10:43:49.238Z,1.17
2019-05-21T10:46:19.309Z,1.57
2019-05-21T10:48:49.246Z,1.00
2019-05-21T10:51:19.376Z,0.97
2019-05-21T10:53:49.298Z,0.90
2019-05-21T10:56:19.245Z,0.90
2019-05-21T10:58:49.193Z,1.07
2019-05-21T11:01:20.676Z,1.50
2019-05-21T11:04:04.052Z,1.30
2019-05-21T11:06:34.205Z,1.00
2019-05-21T11:09:07.727Z,1.30
2019-05-21T11:11:37.588Z,1.20
2019-05-21T11:14:07.503Z,1.93
2019-05-21T11:16:37.403Z,1.73
2019-05-21T11:19:07.299Z,3.33
2019-05-21T11:21:37.245Z,3.57
2019-05-21T11:24:13.739Z,2.57
2019-05-21T11:26:43.702Z,1.73
2019-05-21T11:29:13.568Z,1.30
2019-05-21T11:31:56.571Z,1.70
2019-05-21T11:34:14.981Z,2.87
2019-05-21T11:36:45.332Z,1.40
2019-05-21T11:39:15.255Z,1.30
2019-05-21T11:41:45.171Z,1.30
2019-05-21T11:44:15.235Z,1.40
2019-05-21T11:46:45.260Z,1.43
2019-05-21T11:49:15.231Z,1.70
2019-05-21T11:51:45.098Z,1.70
2019-05-21T11:54:15.055Z,1.80
2019-05-21T11:56:44.994Z,1.80
2019-05-21T11:59:16.089Z,2.53
2019-05-21T12:01:46.145Z,2.10
2019-05-21T12:04:17.057Z,2.43
2019-05-21T12:06:47.003Z,3.37
2019-05-21T12:09:17.010Z,2.37
2019-05-21T12:11:46.943Z,2.37
2019-05-21T12:14:16.877Z,2.30
2019-05-21T12:16:46.739Z,3.23
2019-05-21T12:19:16.687Z,3.60
2019-05-21T12:21:46.631Z,3.30
2019-05-21T12:24:16.794Z,5.47
2019-05-21T12:26:46.690Z,3.63
2019-05-21T12:29:16.691Z,3.80
2019-05-21T12:31:46.700Z,4.13
2019-05-21T12:34:16.600Z,3.40
2019-05-21T12:36:46.489Z,4.90
2019-05-21T12:39:16.483Z,3.27
2019-05-21T12:41:46.424Z,3.57
2019-05-21T12:44:17.315Z,3.37
2019-05-21T12:46:47.515Z,4.00
2019-05-21T12:49:17.430Z,3.60
2019-05-21T12:51:47.441Z,4.10
2019-05-21T12:54:17.594Z,4.40
2019-05-21T12:56:47.506Z,4.67
2019-05-21T12:59:18.692Z,3.77
2019-05-21T13:01:48.649Z,5.63
2019-05-21T13:04:18.610Z,5.40
2019-05-21T13:06:48.522Z,4.23
2019-05-21T13:09:32.446Z,5.33
2019-05-21T13:11:50.187Z,4.93
2019-05-21T13:14:20.101Z,6.30
2019-05-21T13:16:50.009Z,6.17
2019-05-21T13:19:20.015Z,8.17
2019-05-21T13:21:49.954Z,9.23
2019-05-21T13:24:19.881Z,5.83
2019-05-21T13:26:49.846Z,7.00
2019-05-21T13:29:19.792Z,6.43
2019-05-21T13:31:49.961Z,6.50
2019-05-21T13:34:20.173Z,6.30
2019-05-21T13:36:50.197Z,6.47
2019-05-21T13:39:20.266Z,6.17
2019-05-21T13:41:50.198Z,5.73
2019-05-21T13:44:20.109Z,6.70
2019-05-21T13:46:50.078Z,6.63
2019-05-21T13:49:20.160Z,6.20
2019-05-21T13:51:50.069Z,7.20
2019-05-21T13:54:20.064Z,8.10
2019-05-21T13:56:50.133Z,7.13
2019-05-21T13:59:20.170Z,7.57
2019-05-21T14:01:50.154Z,7.73
2019-05-21T14:04:20.554Z,8.47
2019-05-21T14:06:50.492Z,7.97
2019-05-21T14:09:20.498Z,8.20
2019-05-21T14:11:50.496Z,8.67
2019-05-21T14:14:20.499Z,9.53
2019-05-21T14:16:50.366Z,9.30
2019-05-21T14:19:20.385Z,10.60
2019-05-21T14:21:50.393Z,8.63
2019-05-21T14:24:20.333Z,8.80
2019-05-21T14:26:50.244Z,9.23
2019-05-21T14:29:20.105Z,9.10
2019-05-21T14:31:50.413Z,8.77
2019-05-21T14:34:20.352Z,9.27
2019-05-21T14:36:51.390Z,8.27
2019-05-21T14:39:21.432Z,8.73
2019-05-21T14:41:51.285Z,8.80
2019-05-21T14:44:21.232Z,8.63
2019-05-21T14:46:51.080Z,8.20
2019-05-21T14:49:22.002Z,8.13
2019-05-21T14:51:51.863Z,9.17
2019-05-21T14:54:26.706Z,8.03
2019-05-21T14:56:53.352Z,7.33
2019-05-21T14:59:23.204Z,8.67
2019-05-21T15:01:53.149Z,8.10
2019-05-21T15:04:23.287Z,7.10
2019-05-21T15:06:53.412Z,8.13
2019-05-21T15:09:23.345Z,7.87
2019-05-21T15:11:53.188Z,8.03
2019-05-21T15:14:23.078Z,7.30
2019-05-21T15:16:53.026Z,7.87
2019-05-21T15:19:22.989Z,6.53
2019-05-21T15:21:54.544Z,6.97
2019-05-21T15:24:24.548Z,6.23
2019-05-21T15:26:54.536Z,5.97
2019-05-21T15:29:24.412Z,5.90
2019-05-21T15:31:54.361Z,6.50
2019-05-21T15:34:24.296Z,5.67
2019-05-21T15:36:54.228Z,6.77
2019-05-21T15:39:24.181Z,6.57
2019-05-21T15:41:54.056Z,7.53
2019-05-21T15:44:24.026Z,8.07
2019-05-21T15:46:53.901Z,8.40
2019-05-21T15:49:35.613Z,7.60
2019-05-21T15:51:56.030Z,7.87
2019-05-21T15:54:26.027Z,8.70
2019-05-21T15:56:55.972Z,9.27
2019-05-21T15:59:25.887Z,9.40
2019-05-21T16:01:55.833Z,9.50
2019-05-21T16:04:25.692Z,9.10
2019-05-21T16:06:55.560Z,9.77
2019-05-21T16:09:25.552Z,10.07
2019-05-21T16:11:55.462Z,10.43
2019-05-21T16:14:25.364Z,10.33
2019-05-21T16:16:55.305Z,11.50
2019-05-21T16:19:25.303Z,10.87
2019-05-21T16:21:55.285Z,14.07
2019-05-21T16:24:25.200Z,11.87
2019-05-21T16:26:55.091Z,12.60
2019-05-21T16:29:24.955Z,14.27
2019-05-21T16:31:54.848Z,14.07
2019-05-21T16:34:24.713Z,16.30
2019-05-21T16:36:54.755Z,14.87
2019-05-21T16:39:25.542Z,14.60
2019-05-21T16:41:55.461Z,16.40
2019-05-21T16:44:25.648Z,17.57
2019-05-21T16:46:55.560Z,15.97
2019-05-21T16:49:26.229Z,15.93
2019-05-21T16:51:56.165Z,18.73
2019-05-21T16:54:26.146Z,18.27
2019-05-21T16:56:56.088Z,17.70
2019-05-21T16:59:26.248Z,20.03
2019-05-21T17:01:56.356Z,18.23
2019-05-21T17:04:26.225Z,19.27
2019-05-21T17:06:57.483Z,23.80
2019-05-21T17:09:28.364Z,17.67
2019-05-21T17:12:00.363Z,18.93
2019-05-21T17:14:30.177Z,21.20
2019-05-21T17:17:00.195Z,18.37
2019-05-21T17:19:30.204Z,18.90
2019-05-21T17:22:01.621Z,21.90
2019-05-21T17:24:31.647Z,21.30
2019-05-21T17:27:01.618Z,24.43
2019-05-21T17:29:31.609Z,22.23
2019-05-21T17:32:01.874Z,17.83
2019-05-21T17:34:31.853Z,19.77
2019-05-21T17:37:01.881Z,18.13
2019-05-21T17:39:31.959Z,21.47
2019-05-21T17:42:14.663Z,18.33
2019-05-21T17:44:33.873Z,16.90
2019-05-21T17:47:04.039Z,17.23
2019-05-21T17:49:34.113Z,15.97
2019-05-21T17:52:04.842Z,17.77
2019-05-21T17:54:34.933Z,16.20
2019-05-21T17:57:05.411Z,17.93
2019-05-21T17:59:35.469Z,17.07
2019-05-21T18:02:07.210Z,14.90
2019-05-21T18:04:38.200Z,18.80
2019-05-21T18:07:10.581Z,15.57
2019-05-21T18:09:41.222Z,15.67
2019-05-21T18:12:12.544Z,16.93
2019-05-21T18:14:42.845Z,17.67
2019-05-21T18:17:13.661Z,16.17
2019-05-21T18:19:44.508Z,16.87
2019-05-21T18:22:16.195Z,17.23
2019-05-21T18:24:48.727Z,16.77
2019-05-21T18:27:18.889Z,15.33
2019-05-21T18:29:49.137Z,17.07
2019-05-21T18:32:19.216Z,15.73
2019-05-21T18:34:49.222Z,15.77
2019-05-21T18:37:19.180Z,16.67
2019-05-21T18:39:49.415Z,13.87
2019-05-21T18:42:22.326Z,14.43
2019-05-21T18:44:51.160Z,14.47
2019-05-21T18:47:21.107Z,15.03
2019-05-21T18:49:51.303Z,12.80
2019-05-21T18:52:21.400Z,14.67
2019-05-21T18:54:51.440Z,12.27
2019-05-21T18:57:21.529Z,14.70
2019-05-21T18:59:51.793Z,12.63
2019-05-21T19:02:21.939Z,15.73
2019-05-21T19:04:51.967Z,13.53
2019-05-21T19:07:22.210Z,13.70
2019-05-21T19:09:52.296Z,14.50
2019-05-21T19:12:36.919Z,13.27
2019-05-21T19:14:54.068Z,13.73
2019-05-21T19:17:35.240Z,12.60
2019-05-21T19:19:56.577Z,11.70
2019-05-21T19:22:27.721Z,13.63
2019-05-21T19:24:57.852Z,14.53
2019-05-21T19:27:27.870Z,13.77
2019-05-21T19:29:59.048Z,12.87
2019-05-21T19:32:28.961Z,14.43
2019-05-21T19:34:58.979Z,12.30
2019-05-21T19:37:28.834Z,14.03
2019-05-21T19:39:58.834Z,15.07
2019-05-21T19:42:28.809Z,14.63
2019-05-21T19:45:00.008Z,13.70
2019-05-21T19:47:29.947Z,15.00
2019-05-21T19:49:59.901Z,14.30
2019-05-21T19:52:30.612Z,14.40
2019-05-21T19:55:01.001Z,14.27
2019-05-21T19:57:32.617Z,14.53
2019-05-21T20:00:02.551Z,14.13
2019-05-21T20:02:32.791Z,16.47
2019-05-21T20:05:04.779Z,16.97
2019-05-21T20:07:35.903Z,16.23
2019-05-21T20:10:08.130Z,15.83
2019-05-21T20:12:39.334Z,18.13
2019-05-21T20:15:09.698Z,14.40
2019-05-21T20:17:41.056Z,16.67
2019-05-21T20:20:13.345Z,16.73
2019-05-21T20:22:45.344Z,17.90
2019-05-21T20:25:16.684Z,16.20
2019-05-21T20:27:47.820Z,16.53
2019-05-21T20:30:20.183Z,16.93
2019-05-21T20:32:50.304Z,15.00
2019-05-21T20:35:22.723Z,15.77
2019-05-21T20:37:53.399Z,14.90
2019-05-21T20:40:25.987Z,14.87
2019-05-21T20:42:56.662Z,15.30
2019-05-21T20:45:28.150Z,14.63
2019-05-21T20:47:58.633Z,17.10
2019-05-21T20:50:28.631Z,16.27
2019-05-21T20:52:58.686Z,16.33
2019-05-21T20:55:30.628Z,17.13
2019-05-21T20:58:00.789Z,16.17
2019-05-21T21:00:41.228Z,15.93
2019-05-21T21:03:13.649Z,14.20
2019-05-21T21:05:44.006Z,16.50
2019-05-21T21:08:14.776Z,16.20
2019-05-21T21:10:45.555Z,16.47
2019-05-21T21:13:16.072Z,13.53
2019-05-21T21:15:46.896Z,15.77
2019-05-21T21:18:18.796Z,15.63
2019-05-21T21:20:49.008Z,14.70
2019-05-21T21:23:21.015Z,15.63
2019-05-21T21:25:51.742Z,14.27
2019-05-21T21:28:22.020Z,15.97
2019-05-21T21:30:52.345Z,14.63
2019-05-21T21:33:22.298Z,15.47
2019-05-21T21:35:52.917Z,19.27
2019-05-21T21:38:24.634Z,17.40
2019-05-21T21:40:54.657Z,17.27
2019-05-21T21:43:25.617Z,16.40
2019-05-21T21:45:55.554Z,17.67
2019-05-21T21:48:26.088Z,17.50
2019-05-21T21:50:56.105Z,17.73
2019-05-21T21:53:26.066Z,18.10
2019-05-21T21:55:55.940Z,16.50
2019-05-21T21:58:25.806Z,17.53
2019-05-21T22:01:03.172Z,16.73
2019-05-21T22:03:36.483Z,18.03
2019-05-21T22:06:08.984Z,16.63
2019-05-21T22:08:39.566Z,17.50
2019-05-21T22:11:09.518Z,16.13
2019-05-21T22:13:39.413Z,17.07
2019-05-21T22:16:09.532Z,18.07
2019-05-21T22:18:39.459Z,18.60
2019-05-21T22:21:09.416Z,16.53
2019-05-21T22:23:40.222Z,16.20
2019-05-21T22:26:10.094Z,17.53
2019-05-21T22:28:40.118Z,16.70
2019-05-21T22:31:10.060Z,20.97
2019-05-21T22:33:39.990Z,18.23
2019-05-21T22:36:11.463Z,17.17
2019-05-21T22:38:41.389Z,18.23
2019-05-21T22:41:11.762Z,16.87
2019-05-21T22:43:41.676Z,18.50
2019-05-21T22:46:11.625Z,19.23
2019-05-21T22:48:41.554Z,21.60
2019-05-21T22:51:11.571Z,21.30
2019-05-21T22:53:41.693Z,18.00
2019-05-21T22:56:11.624Z,21.13
2019-05-21T22:58:41.567Z,20.83
2019-05-21T23:01:11.702Z,22.77
2019-05-21T23:03:41.643Z,21.83
2019-05-21T23:06:11.847Z,23.97
2019-05-21T23:08:42.052Z,25.13
2019-05-21T23:11:12.011Z,22.30
2019-05-21T23:13:41.952Z,27.43
2019-05-21T23:16:12.507Z,25.63
2019-05-21T23:18:51.048Z,27.77
2019-05-21T23:21:26.423Z,24.67
2019-05-21T23:23:59.045Z,24.47
2019-05-21T23:26:30.496Z,24.60
2019-05-21T23:29:01.413Z,25.43
2019-05-21T23:31:32.303Z,24.60
2019-05-21T23:34:02.334Z,25.53
2019-05-21T23:36:32.733Z,23.63
2019-05-21T23:39:04.878Z,24.97
2019-05-21T23:41:36.736Z,26.73
2019-05-21T23:44:06.666Z,25.67
2019-05-21T23:46:36.559Z,28.33
2019-05-21T23:49:06.562Z,26.97
2019-05-21T23:51:36.600Z,26.10
2019-05-21T23:54:07.090Z,28.37
2019-05-21T23:56:37.265Z,28.70
2019-05-21T23:59:07.228Z,28.87
